Αναφορές Αεροδρομίων

 

KSJC - San Jose, California, USA
Distance from station: ΒΑ 14km
Ενημερώθηκε: 27/11/2021 12:53
Αίθριος
Αίθριος
 Ανεμος από calm
Ανεμος: Απνοια
Θερμοκρασία: 9°C
Σημείο Δρόσου: 5°C
Υγρασία: 76%
Βαρόμετρο: 1020.7 hPa
Clouds: Αίθριος
Visibility: 16 km
2021/11/27 10:53 KSJC 271053Z AUTO 00000KT 10SM CLR 09/05 A3014 RMK AO2 SLP204 T00890050
KNUQ - Moffett Nas/Mtn, California, USA
Distance from station: Β 14km
Ενημερώθηκε: 27/11/2021 13:15
Αίθριος
Αίθριος
 Ανεμος από calm
Ανεμος: Απνοια
Θερμοκρασία: 8°C
Σημείο Δρόσου: 5°C
Υγρασία: 82%
Βαρόμετρο: 1020.3 hPa
Clouds: Αίθριος
Visibility: 16 km
2021/11/27 11:15 KNUQ 271115Z AUTO 00000KT 10SM CLR 08/05 A3013 RMK AO2
 
KPAO - Palo Alto, California, USA
Distance from station: ΒΒΔ 23km
Ενημερώθηκε: 27/11/2021 06:47
NOT Current
Αίθριος
Αίθριος
 Ανεμος από calm
Ανεμος: Απνοια
Θερμοκρασία: 11°C
Σημείο Δρόσου: 7°C
Υγρασία: 77%
Βαρόμετρο: 1021 hPa
Clouds: Αίθριος
Visibility: 16 km
2021/11/27 04:47 KPAO 270447Z 00000KT 10SM SKC 11/07 A3015 RMK LAST
KRHV - San Jose/Reid, California, USA
Distance from station: ΑΒΑ 19km
Ενημερώθηκε: 27/11/2021 07:50
NOT Current
Αίθριος
Αίθριος
 Ανεμος από varies
Ανεμος: varies 6 km/h
Θερμοκρασία: 11°C
Σημείο Δρόσου: 7°C
Υγρασία: 77%
Βαρόμετρο: 1021 hPa
Clouds: Αίθριος
Visibility: 16 km
2021/11/27 05:50 KRHV 270550Z VRB03KT 10SM SKC 11/07 A3015 RMK LAST
 
KOAK - Oakland, California, USA
Distance from station: ΒΒΔ 50km
Ενημερώθηκε: 27/11/2021 12:53
Few Clouds
Few Clouds
 Ανεμος από calm
Ανεμος: Απνοια
Θερμοκρασία: 8°C
Σημείο Δρόσου: 4°C
Υγρασία: 76%
Βαρόμετρο: 1021 hPa
Clouds: Few Clouds
Visibility: 16 km
Cloud details: Few Clouds 6096 m
2021/11/27 10:53 KOAK 271053Z 00000KT 10SM FEW200 08/04 A3015 RMK AO2 SLP209 T00830044
KSQL - San Carlos Airpo, California, USA
Distance from station: ΒΔ 34km
Ενημερώθηκε: 27/11/2021 13:15
Αίθριος
Αίθριος
 Ανεμος από calm
Ανεμος: Απνοια
Θερμοκρασία: 9°C
Σημείο Δρόσου: 4°C
Υγρασία: 71%
Βαρόμετρο: 1021 hPa
Clouds: Αίθριος
Visibility: 16 km
2021/11/27 11:15 KSQL 271115Z AUTO 00000KT 10SM CLR 09/04 A3015 RMK AO2
 
KSFO - San Francisco, California, USA
Distance from station: ΒΔ 49km
Ενημερώθηκε: 27/11/2021 12:56
Μερικώς νεφελώδης
Μερικώς νεφελώδης
 Ανεμος από ΔΝΔ
Ανεμος: ΔΝΔ 7 km/h
Θερμοκρασία: 9°C
Wind Chill: 8°C
Σημείο Δρόσου: 5°C
Υγρασία: 76%
Βαρόμετρο: 1020.7 hPa
Clouds: Μερικώς νεφελώδης
Visibility: 16 km
Cloud details: Μερικώς νεφελώδης 6096 m
2021/11/27 10:56 KSFO 271056Z 25004KT 10SM SCT200 09/05 A3014 RMK AO2 SLP205 T00940050 $
KE16 - San Martin, California, USA
Distance from station: ΑΝΑ 43km
Ενημερώθηκε: 27/11/2021 13:15
Αίθριος
Αίθριος
 Ανεμος από calm
Ανεμος: Απνοια
Θερμοκρασία: 5°C
Σημείο Δρόσου: 4°C
Υγρασία: 93%
Βαρόμετρο: 1021.3 hPa
Clouds: Αίθριος
Visibility: 16 km
2021/11/27 11:15 KE16 271115Z AUTO 00000KT 10SM CLR 05/04 A3016 RMK AO2 PWINO PNO
 
KWVI - Watsonville, California, USA
Distance from station: ΝΝΑ 44km
Ενημερώθηκε: 27/11/2021 12:53
Αίθριος
Αίθριος
 Ανεμος από calm
Ανεμος: Απνοια
Θερμοκρασία: 8°C
Σημείο Δρόσου: 5°C
Υγρασία: 82%
Βαρόμετρο: 1020.3 hPa
Clouds: Αίθριος
Visibility: 16 km
2021/11/27 10:53 KWVI 271053Z AUTO 00000KT 10SM CLR 08/05 A3013 RMK AO2 SLP202 T00830050
KHAF - Half Moon Bay, California, USA
Distance from station: ΔΒΔ 50km
Ενημερώθηκε: 27/11/2021 13:15
Συννεφιά
Συννεφιά
 Ανεμος από calm
Ανεμος: Απνοια
Θερμοκρασία: 7°C
Σημείο Δρόσου: 6°C
Υγρασία: 93%
Βαρόμετρο: 1020 hPa
Clouds: Συννεφιά
Visibility: 14 km
Cloud details: Συννεφιά 91 m
2021/11/27 11:15 KHAF 271115Z AUTO 00000KT 9SM OVC003 07/06 A3012 RMK AO2
 
KHWD - Hayward, California, USA
Distance from station: Β 44km
Ενημερώθηκε: 27/11/2021 12:54
Αίθριος
Αίθριος
 Ανεμος από calm
Ανεμος: Απνοια
Θερμοκρασία: 9°C
Σημείο Δρόσου: 4°C
Υγρασία: 71%
Βαρόμετρο: 1020.3 hPa
Clouds: Αίθριος
Visibility: 16 km
2021/11/27 10:54 KHWD 271054Z AUTO 00000KT 10SM CLR 09/04 A3013 RMK AO2 SLP214 T00940039
KLVK - Livermore, California, USA
Distance from station: ΒΒΑ 51km
Ενημερώθηκε: 27/11/2021 12:53
Αίθριος
Αίθριος
 Ανεμος από calm
Ανεμος: Απνοια
Θερμοκρασία: 6°C
Σημείο Δρόσου: 3°C
Υγρασία: 81%
Βαρόμετρο: 1020.7 hPa
Clouds: Αίθριος
Visibility: 16 km
2021/11/27 10:53 KLVK 271053Z AUTO 00000KT 10SM CLR 06/03 A3014 RMK AO2 SLP203 T00610033